Camargo, Oklahoma
Current Conditions -  °F | °C
As of 2:35 AM on Saturday 22 Nov 2014 (Local Time) from KWWR Reporting Station
Broken Clouds Broken Clouds  
Wind Chill: 32°   Ceiling: 700
Heat Index: 37°   Visibility: 7mi
Dew Point: 36°   Wind: 7mph
Humidity: 93%   Direction: 220°SW
Pressure: 30.03"   Gusts: NA
Location:  36.02°N, 99.29°W
Report Text: KWWR 220835Z AUTO 22006KT 7SM BKN007 03/02 A3003 RMK AO2 LTG DSNT S
Loading
Personal Weather Stations






























Interactive Weather Map New forecast layout! Learn more

10-Day Weather Forecast

Advertisements
Track Severe Weather on mobile